Time;durP1;ratioP1;P1;durP2;ratioP2;P2;SDS_P1;SDS_P2;PMS_P1;PMS_P2;Temp;Humidity;BMP_temperature;BMP_pressure;BME280_temperature;BME280_humidity;BME280_pressure;Samples;Min_cycle;Max_cycle;Signal;HPM_P1;HPM_P2
2022/05/31 00:00:48;;;;;;;9.40;5.10;;;;;;;10.14;89.57;101355.44;5086951;28;20058;-70
2022/05/31 00:03:16;;;;;;;7.45;4.15;;;;;;;10.12;89.80;101362.56;5092562;28;20318;-70
2022/05/31 00:05:44;;;;;;;8.50;4.43;;;;;;;10.09;89.37;101354.81;5092041;28;20398;-69
2022/05/31 00:08:12;;;;;;;8.00;4.25;;;;;;;9.96;89.62;101352.03;5088088;28;20071;-70
2022/05/31 00:10:40;;;;;;;9.10;4.32;;;;;;;9.93;89.61;101349.56;5070334;28;20426;-70
2022/05/31 00:13:10;;;;;;;10.52;5.40;;;;;;;9.88;89.28;101341.09;5069493;28;20052;-71
2022/05/31 00:15:38;;;;;;;8.30;4.70;;;;;;;9.85;89.30;101343.91;5071179;28;20067;-70
2022/05/31 00:18:08;;;;;;;12.05;5.50;;;;;;;9.85;90.05;101341.25;5071264;28;20040;-69
2022/05/31 00:20:36;;;;;;;10.43;5.53;;;;;;;9.82;89.56;101340.47;5071438;28;20139;-71
2022/05/31 00:23:07;;;;;;;10.18;5.53;;;;;;;9.83;89.09;101341.34;5072568;28;20048;-70
2022/05/31 00:25:35;;;;;;;12.02;5.70;;;;;;;9.81;89.41;101337.94;5075407;28;20049;-70
2022/05/31 00:28:04;;;;;;;8.80;5.57;;;;;;;9.81;89.22;101341.41;5075118;28;20123;-70
2022/05/31 00:30:34;;;;;;;10.13;5.75;;;;;;;9.76;89.48;101337.34;5075029;28;20087;-71
2022/05/31 00:33:02;;;;;;;10.18;5.65;;;;;;;9.71;89.86;101340.22;5074762;28;20541;-73
2022/05/31 00:35:33;;;;;;;10.23;5.63;;;;;;;9.61;89.71;101339.88;5074726;28;20048;-73
2022/05/31 00:38:02;;;;;;;9.77;5.13;;;;;;;9.60;90.54;101347.84;5074789;28;20048;-73
2022/05/31 00:40:32;;;;;;;8.20;4.97;;;;;;;9.60;89.83;101343.41;5074773;28;20098;-73
2022/05/31 00:43:04;;;;;;;9.90;5.63;;;;;;;9.58;90.04;101337.38;5074605;28;20503;-72
2022/05/31 00:45:40;;;;;;;8.38;5.25;;;;;;;9.57;90.00;101346.22;5074728;28;20567;-73
2022/05/31 00:48:12;;;;;;;10.02;5.18;;;;;;;9.59;90.61;101344.34;5074753;28;20044;-73
2022/05/31 00:50:45;;;;;;;8.77;5.28;;;;;;;9.59;89.71;101343.50;5074558;28;20423;-73
2022/05/31 00:53:20;;;;;;;9.20;5.03;;;;;;;9.60;90.24;101340.78;5073286;28;20136;-73
2022/05/31 00:55:51;;;;;;;9.80;4.80;;;;;;;9.56;89.65;101344.50;5073133;28;20055;-73
2022/05/31 00:58:24;;;;;;;9.80;4.75;;;;;;;9.52;89.98;101348.22;5074446;28;20426;-73
2022/05/31 01:00:54;;;;;;;10.15;5.70;;;;;;;9.50;90.27;101342.19;5074398;28;20057;-73
2022/05/31 01:03:23;;;;;;;9.90;6.38;;;;;;;9.46;90.72;101338.03;5074710;28;20056;-73
2022/05/31 01:05:52;;;;;;;12.13;7.82;;;;;;;9.47;90.34;101339.75;5074126;28;20083;-73
2022/05/31 01:08:20;;;;;;;13.23;8.13;;;;;;;9.46;91.19;101332.78;5074196;28;20453;-72
2022/05/31 01:10:48;;;;;;;13.30;8.52;;;;;;;9.48;90.64;101339.66;5074423;28;20048;-73
2022/05/31 01:13:18;;;;;;;14.15;9.50;;;;;;;9.42;91.23;101333.88;5074304;28;20060;-70
2022/05/31 01:15:50;;;;;;;17.40;11.07;;;;;;;9.45;91.04;101339.00;5072916;28;20051;-70
2022/05/31 01:18:19;;;;;;;16.02;11.35;;;;;;;9.45;91.19;101337.19;5074149;28;20053;-71
2022/05/31 01:20:49;;;;;;;16.20;11.13;;;;;;;9.48;90.83;101341.44;5074135;28;20056;-72
2022/05/31 01:23:18;;;;;;;17.33;10.95;;;;;;;9.43;91.25;101338.22;5074186;28;20052;-72
2022/05/31 01:26:06;;;;;;;16.90;10.30;;;;;;;9.51;90.92;101340.44;5074179;28;20503;-72
2022/05/31 01:28:52;;;;;;;13.10;9.25;;;;;;;9.54;91.38;101337.66;5073785;28;20071;-73
2022/05/31 01:31:25;;;;;;;13.55;8.98;;;;;;;9.38;92.72;101334.97;5074054;28;20491;-73
2022/05/31 01:33:59;;;;;;;14.63;8.85;;;;;;;9.33;93.06;101335.22;5073486;28;20499;-73
2022/05/31 01:36:33;;;;;;;12.25;7.40;;;;;;;9.37;92.39;101333.28;5073838;28;20080;-73
2022/05/31 01:39:04;;;;;;;11.73;7.60;;;;;;;9.36;92.26;101337.69;5073680;28;20045;-73
2022/05/31 01:41:38;;;;;;;12.40;7.35;;;;;;;9.24;92.59;101344.44;5073624;28;20081;-73
2022/05/31 01:44:10;;;;;;;12.20;7.40;;;;;;;9.16;93.77;101335.25;5073677;28;20048;-72
2022/05/31 01:46:39;;;;;;;11.75;6.93;;;;;;;9.13;93.67;101339.72;5073811;28;20063;-72
2022/05/31 01:49:09;;;;;;;10.70;6.82;;;;;;;9.12;93.70;101342.41;5073504;28;20040;-73
2022/05/31 01:51:41;;;;;;;11.60;6.47;;;;;;;9.06;94.42;101334.88;5073590;28;20053;-73
2022/05/31 01:54:11;;;;;;;9.20;5.57;;;;;;;9.04;94.77;101334.09;5073594;28;20051;-73
2022/05/31 01:56:41;;;;;;;10.38;5.57;;;;;;;9.04;95.05;101334.94;5073751;28;20567;-73
2022/05/31 01:59:12;;;;;;;8.90;4.60;;;;;;;9.08;95.21;101333.00;5073391;28;20047;-73
2022/05/31 02:01:40;;;;;;;8.32;4.90;;;;;;;9.12;94.46;101334.53;5073324;28;20062;-73
2022/05/31 02:04:10;;;;;;;10.27;4.57;;;;;;;9.11;94.63;101332.88;5073248;28;20048;-73
2022/05/31 02:06:40;;;;;;;8.95;4.45;;;;;;;9.08;95.17;101328.63;5073204;28;20098;-72
2022/05/31 02:09:11;;;;;;;9.40;4.40;;;;;;;9.06;95.87;101325.22;5073361;28;20067;-72
2022/05/31 02:11:40;;;;;;;9.35;4.47;;;;;;;9.05;96.31;101322.66;5073261;28;20041;-72
2022/05/31 02:14:09;;;;;;;9.05;4.07;;;;;;;9.07;96.37;101321.66;5071628;28;20135;-72
2022/05/31 02:16:37;;;;;;;6.85;4.05;;;;;;;9.06;96.43;101322.59;5073015;28;20395;-70
2022/05/31 02:19:23;;;;;;;8.73;4.40;;;;;;;9.11;96.41;101319.75;5073079;28;20071;-69
2022/05/31 02:21:55;;;;;;;7.65;3.80;;;;;;;9.10;96.80;101326.75;5072950;28;20052;-70
2022/05/31 02:24:24;;;;;;;8.02;3.92;;;;;;;9.13;97.03;101331.00;5073021;28;20075;-70
2022/05/31 02:26:53;;;;;;;8.15;4.55;;;;;;;9.13;96.65;101325.75;5073182;28;20486;-71
2022/05/31 02:29:25;;;;;;;7.82;4.30;;;;;;;9.06;97.45;101332.25;5073287;28;20518;-70
2022/05/31 02:31:54;;;;;;;7.97;4.43;;;;;;;9.08;97.24;101339.13;5072940;28;20053;-70
2022/05/31 02:34:25;;;;;;;7.43;3.85;;;;;;;9.10;97.51;101333.78;5072919;28;20440;-69
2022/05/31 02:36:55;;;;;;;7.78;4.30;;;;;;;9.10;97.51;101320.66;5072602;28;20111;-70
2022/05/31 02:39:23;;;;;;;8.48;4.47;;;;;;;9.11;97.70;101325.00;5072720;28;20029;-69
2022/05/31 02:41:52;;;;;;;7.32;4.20;;;;;;;9.09;97.27;101321.56;5072549;28;20097;-70
2022/05/31 02:44:21;;;;;;;8.48;4.50;;;;;;;9.07;97.75;101324.28;5071773;28;20051;-71
2022/05/31 02:46:49;;;;;;;7.88;3.97;;;;;;;9.08;97.83;101320.75;5072727;28;20053;-69
2022/05/31 02:49:18;;;;;;;7.85;4.40;;;;;;;9.11;97.17;101317.97;5072600;28;20051;-70
2022/05/31 02:51:47;;;;;;;8.95;4.28;;;;;;;9.04;97.47;101319.22;5074845;28;20045;-70
2022/05/31 02:54:19;;;;;;;8.00;4.10;;;;;;;9.11;96.74;101317.13;5073686;28;20049;-69
2022/05/31 02:56:47;;;;;;;7.77;4.50;;;;;;;8.98;97.55;101316.03;5073669;28;20037;-70
2022/05/31 02:59:16;;;;;;;10.27;4.63;;;;;;;8.98;97.36;101313.41;5072654;28;20475;-69
2022/05/31 03:01:45;;;;;;;9.02;4.95;;;;;;;8.94;98.19;101317.97;5071556;28;20048;-68
2022/05/31 03:04:13;;;;;;;9.63;4.38;;;;;;;8.94;98.22;101321.44;5072567;28;20045;-69
2022/05/31 03:06:41;;;;;;;8.23;5.10;;;;;;;8.93;98.32;101313.63;5072186;28;20074;-69
2022/05/31 03:09:10;;;;;;;9.57;4.57;;;;;;;8.89;98.66;101312.97;5072583;28;20055;-69
2022/05/31 03:11:45;;;;;;;8.98;4.75;;;;;;;8.82;98.33;101311.59;5072152;28;20445;-69
2022/05/31 03:14:17;;;;;;;8.02;4.75;;;;;;;8.77;98.73;101317.03;5072161;28;20127;-69
2022/05/31 03:16:49;;;;;;;8.75;4.78;;;;;;;8.77;99.38;101313.59;5072054;28;20039;-70
2022/05/31 03:19:26;;;;;;;8.35;4.78;;;;;;;8.74;99.44;101317.19;5072306;28;20119;-73
2022/05/31 03:22:00;;;;;;;11.55;5.20;;;;;;;8.73;99.84;101314.66;5072074;28;20048;-73
2022/05/31 03:24:35;;;;;;;8.80;4.72;;;;;;;8.63;99.50;101307.25;5070838;28;20059;-70
2022/05/31 03:27:08;;;;;;;11.10;5.20;;;;;;;8.61;98.20;101306.47;5071629;28;20045;-73
2022/05/31 03:29:38;;;;;;;10.52;5.85;;;;;;;8.64;98.24;101305.47;5070545;28;20059;-73
2022/05/31 03:32:08;;;;;;;11.55;5.63;;;;;;;8.62;97.99;101300.28;5071677;28;20055;-73
2022/05/31 03:34:37;;;;;;;10.25;5.60;;;;;;;8.60;98.14;101307.41;5071954;28;20106;-73
2022/05/31 03:37:05;;;;;;;9.18;6.07;;;;;;;8.59;98.42;101305.69;5071634;28;20162;-73
2022/05/31 03:39:34;;;;;;;10.95;5.97;;;;;;;8.60;98.38;101296.91;5071726;28;20044;-73
2022/05/31 03:42:02;;;;;;;11.02;5.45;;;;;;;8.70;98.15;101292.06;5071536;28;20132;-73
2022/05/31 03:44:31;;;;;;;9.45;5.45;;;;;;;8.71;98.52;101292.91;5071678;28;20102;-73
2022/05/31 03:46:59;;;;;;;11.27;5.90;;;;;;;8.72;98.65;101299.84;5071502;28;20202;-70
2022/05/31 03:49:27;;;;;;;10.35;5.97;;;;;;;8.73;99.27;101296.31;5070368;28;20075;-70
2022/05/31 03:51:55;;;;;;;11.50;5.97;;;;;;;8.71;98.95;101299.00;5071592;28;20052;-70
2022/05/31 03:54:24;;;;;;;11.18;6.55;;;;;;;8.71;98.81;101304.25;5071475;28;20052;-69
2022/05/31 03:56:52;;;;;;;10.27;6.40;;;;;;;8.70;98.75;101305.16;5071143;28;20041;-69
2022/05/31 03:59:20;;;;;;;10.88;6.28;;;;;;;8.67;98.58;101310.56;5071822;28;20059;-70
2022/05/31 04:01:49;;;;;;;11.55;6.47;;;;;;;8.76;98.15;101307.47;5071423;28;20056;-73
2022/05/31 04:04:18;;;;;;;12.15;6.50;;;;;;;8.75;97.98;101312.78;5071657;28;20078;-73
2022/05/31 04:06:46;;;;;;;10.38;6.38;;;;;;;8.76;98.10;101306.63;5071567;28;20501;-73
2022/05/31 04:09:14;;;;;;;10.15;6.35;;;;;;;8.79;98.62;101301.22;5072494;28;20045;-73
2022/05/31 04:11:42;;;;;;;11.38;7.18;;;;;;;8.82;98.65;101305.47;5077820;28;20048;-70
2022/05/31 04:14:10;;;;;;;12.07;6.82;;;;;;;8.80;98.46;101306.38;5078730;28;20502;-70
2022/05/31 04:16:39;;;;;;;12.77;6.95;;;;;;;8.89;98.22;101307.72;5074924;28;20132;-70
2022/05/31 04:19:08;;;;;;;10.98;6.60;;;;;;;8.91;98.00;101305.84;5074040;28;20045;-70
2022/05/31 04:21:38;;;;;;;9.93;6.78;;;;;;;8.92;98.02;101304.94;5072536;28;20047;-70
2022/05/31 04:24:09;;;;;;;11.77;6.45;;;;;;;8.94;98.49;101296.97;5071363;28;20049;-70
2022/05/31 04:26:40;;;;;;;12.65;6.85;;;;;;;8.98;97.86;101303.75;5071119;28;20044;-70
2022/05/31 04:29:08;;;;;;;9.95;6.55;;;;;;;8.95;98.53;101307.38;5071217;28;20053;-70
2022/05/31 04:31:37;;;;;;;11.73;6.72;;;;;;;8.99;98.58;101302.00;5071511;28;20119;-70
2022/05/31 04:34:06;;;;;;;10.20;6.07;;;;;;;9.02;98.20;101305.31;5070915;28;20563;-70
2022/05/31 04:36:36;;;;;;;9.52;6.10;;;;;;;9.10;97.95;101313.63;5070941;28;20040;-73
2022/05/31 04:39:05;;;;;;;10.95;6.57;;;;;;;9.17;98.11;101306.28;5070976;28;20041;-73
2022/05/31 04:41:33;;;;;;;11.18;6.22;;;;;;;9.18;97.92;101309.78;5071147;28;20466;-73
2022/05/31 04:44:04;;;;;;;10.70;7.65;;;;;;;9.20;97.67;101305.28;5075226;28;20045;-73
2022/05/31 04:46:34;;;;;;;11.75;7.15;;;;;;;9.27;97.78;101302.28;5079917;28;20047;-73
2022/05/31 04:49:04;;;;;;;9.93;6.57;;;;;;;9.29;97.94;101303.03;5079405;28;20107;-73
2022/05/31 04:51:35;;;;;;;11.00;7.07;;;;;;;9.38;97.50;101298.22;5076334;28;20067;-72
2022/05/31 04:54:04;;;;;;;11.10;7.18;;;;;;;9.38;97.64;101292.97;5074191;28;20040;-72
2022/05/31 04:56:33;;;;;;;11.07;7.07;;;;;;;9.39;97.67;101299.91;5072416;28;20075;-72
2022/05/31 04:59:02;;;;;;;11.27;7.20;;;;;;;9.42;97.59;101299.75;5069969;28;20064;-70
2022/05/31 05:01:30;;;;;;;10.02;6.82;;;;;;;9.46;97.87;101301.28;5070799;28;20049;-70
2022/05/31 05:03:58;;;;;;;15.77;7.35;;;;;;;9.54;97.89;101298.25;5070994;28;20127;-70
2022/05/31 05:06:31;;;;;;;11.10;7.20;;;;;;;9.55;96.95;101294.72;5071071;28;20050;-70
2022/05/31 05:09:00;;;;;;;11.48;7.18;;;;;;;9.60;96.28;101304.03;5073317;28;20098;-73
2022/05/31 05:11:29;;;;;;;11.57;6.82;;;;;;;9.66;96.53;101307.25;5074852;28;20488;-73
2022/05/31 05:13:57;;;;;;;11.50;7.07;;;;;;;9.69;96.96;101304.47;5074663;28;20040;-73
2022/05/31 05:16:26;;;;;;;10.68;6.53;;;;;;;9.69;96.72;101299.22;5073528;28;20059;-73
2022/05/31 05:18:55;;;;;;;13.40;7.40;;;;;;;9.71;95.59;101305.25;5074281;28;20040;-73
2022/05/31 05:21:23;;;;;;;12.32;6.90;;;;;;;9.74;95.56;101298.03;5072910;28;20075;-72
2022/05/31 05:23:52;;;;;;;13.55;6.93;;;;;;;9.74;96.35;101298.03;5074265;28;20498;-69
2022/05/31 05:26:21;;;;;;;10.60;6.68;;;;;;;9.75;97.19;101296.25;5074209;28;20036;-73
2022/05/31 05:31:40;;;;;;;13.10;7.43;;;;;;;9.87;95.55;101300.84;5074255;28;20406;-73
2022/05/31 05:34:09;;;;;;;12.43;7.65;;;;;;;9.95;93.28;101301.28;5072725;28;20176;-73
2022/05/31 05:36:37;;;;;;;15.50;7.95;;;;;;;10.02;94.33;101295.66;5073872;28;20106;-73
2022/05/31 05:39:10;;;;;;;14.38;9.13;;;;;;;9.98;93.30;101293.22;5073644;28;20406;-73
2022/05/31 05:41:41;;;;;;;19.67;12.23;;;;;;;10.07;92.31;101296.25;5073907;28;20055;-73
2022/05/31 05:44:09;;;;;;;17.75;12.77;;;;;;;10.05;90.04;101295.47;5073753;28;20054;-74
2022/05/31 05:46:37;;;;;;;21.02;13.43;;;;;;;10.12;90.21;101296.84;5073882;28;20048;-72
2022/05/31 05:49:05;;;;;;;18.27;11.20;;;;;;;10.11;89.91;101292.53;5073678;28;20127;-73
2022/05/31 05:51:35;;;;;;;18.90;12.18;;;;;;;10.06;90.82;101295.41;5073558;28;20049;-73
2022/05/31 05:54:03;;;;;;;20.13;13.48;;;;;;;10.18;90.08;101288.59;5073555;28;20094;-73
2022/05/31 05:56:32;;;;;;;17.67;12.15;;;;;;;10.08;89.48;101288.28;5073682;28;20049;-73
2022/05/31 05:59:01;;;;;;;20.02;12.93;;;;;;;10.18;90.00;101296.50;5073458;28;20048;-73
2022/05/31 06:01:33;;;;;;;17.73;12.43;;;;;;;10.26;89.93;101294.28;5073695;28;20056;-73
2022/05/31 06:04:26;;;;;;;20.67;13.38;;;;;;;10.32;89.49;101291.31;5073420;28;20113;-73
2022/05/31 06:07:01;;;;;;;18.45;12.00;;;;;;;10.44;89.94;101295.06;5073249;28;20043;-73
2022/05/31 06:09:35;;;;;;;20.58;13.13;;;;;;;10.29;90.55;101291.50;5073440;28;20048;-73
2022/05/31 06:12:06;;;;;;;21.65;14.43;;;;;;;10.40;91.00;101297.94;5073083;28;20041;-73
2022/05/31 06:14:39;;;;;;;19.55;12.50;;;;;;;10.41;90.20;101292.59;5073426;28;20403;-73
2022/05/31 06:17:14;;;;;;;18.23;12.07;;;;;;;10.50;90.54;101291.22;5073112;28;20123;-70
2022/05/31 06:19:47;;;;;;;15.60;9.32;;;;;;;10.61;90.12;101298.50;5071831;28;20056;-70
2022/05/31 06:22:15;;;;;;;13.85;8.98;;;;;;;10.66;90.26;101293.81;5072952;28;20040;-69
2022/05/31 06:24:44;;;;;;;14.85;10.05;;;;;;;10.71;89.55;101298.81;5072925;28;20071;-70
2022/05/31 06:27:12;;;;;;;17.02;11.68;;;;;;;10.78;89.01;101294.88;5072951;28;20053;-73
2022/05/31 06:29:42;;;;;;;22.08;14.13;;;;;;;10.83;89.51;101291.03;5073198;28;20048;-70
2022/05/31 06:32:10;;;;;;;23.73;15.15;;;;;;;10.90;89.43;101288.06;5073073;28;20051;-73
2022/05/31 06:34:39;;;;;;;19.13;13.05;;;;;;;10.94;90.16;101293.03;5073208;28;20049;-73
2022/05/31 06:37:10;;;;;;;14.73;8.40;;;;;;;10.99;88.52;101296.25;5072947;28;20052;-73
2022/05/31 06:39:39;;;;;;;13.88;8.45;;;;;;;11.10;87.94;101297.41;5072806;28;20036;-73
2022/05/31 06:42:09;;;;;;;17.27;7.90;;;;;;;11.11;87.32;101299.06;5072556;28;20048;-72
2022/05/31 06:44:39;;;;;;;11.25;6.65;;;;;;;11.18;84.71;101300.41;5072659;28;20052;-69
2022/05/31 06:47:10;;;;;;;13.13;7.40;;;;;;;11.22;84.96;101301.03;5072747;28;20040;-70
2022/05/31 06:49:39;;;;;;;11.70;6.85;;;;;;;11.25;85.20;101301.72;5072342;28;20044;-70
2022/05/31 06:57:45;;;;;;;13.52;7.07;;;;;;;11.34;84.06;101300.31;5070887;28;20063;-72
2022/05/31 07:00:16;;;;;;;12.48;6.70;;;;;;;11.41;83.43;101303.41;5072309;28;20067;-72
2022/05/31 07:02:46;;;;;;;13.52;6.90;;;;;;;11.45;83.09;101297.00;5072267;28;20582;-73
2022/05/31 07:05:15;;;;;;;12.38;6.90;;;;;;;11.56;83.35;101307.75;5072108;28;20041;-72
2022/05/31 07:07:43;;;;;;;13.45;7.40;;;;;;;11.52;84.73;101297.47;5072072;28;20093;-73
2022/05/31 07:10:12;;;;;;;12.70;7.40;;;;;;;11.64;84.01;101302.84;5072011;28;20050;-73
2022/05/31 07:12:42;;;;;;;11.18;7.43;;;;;;;11.66;84.58;101300.94;5072274;28;20079;-73
2022/05/31 07:15:11;;;;;;;13.40;7.40;;;;;;;11.67;84.29;101294.75;5071672;28;20124;-73
2022/05/31 07:17:39;;;;;;;13.45;7.55;;;;;;;11.76;85.32;101300.38;5072125;28;20036;-73
2022/05/31 07:20:10;;;;;;;12.65;7.60;;;;;;;11.75;85.55;101294.28;5072155;28;20056;-73
2022/05/31 07:22:39;;;;;;;13.05;7.57;;;;;;;11.78;84.59;101294.06;5072196;28;20098;-71
2022/05/31 07:25:08;;;;;;;11.68;7.47;;;;;;;11.89;83.54;101290.75;5071996;28;20044;-72
2022/05/31 07:27:36;;;;;;;12.10;7.63;;;;;;;11.95;83.50;101294.81;5072074;28;20498;-70
2022/05/31 07:30:05;;;;;;;12.82;8.15;;;;;;;11.93;83.43;101286.97;5072431;28;20045;-70
2022/05/31 07:32:34;;;;;;;15.35;8.13;;;;;;;11.97;82.78;101288.50;5072076;28;20064;-70
2022/05/31 07:35:23;;;;;;;13.60;7.22;;;;;;;12.03;82.97;101286.44;5071794;28;20106;-69
2022/05/31 07:37:51;;;;;;;15.27;7.90;;;;;;;11.97;83.73;101285.88;5072110;28;20119;-70
2022/05/31 07:40:19;;;;;;;13.18;8.52;;;;;;;12.05;83.74;101289.81;5071586;28;20106;-70
2022/05/31 07:42:47;;;;;;;13.48;9.30;;;;;;;12.10;84.18;101293.00;5070331;28;20477;-70
2022/05/31 07:45:16;;;;;;;12.18;8.30;;;;;;;12.13;84.61;101271.69;5071793;28;20494;-69
2022/05/31 07:47:44;;;;;;;13.00;9.35;;;;;;;12.24;84.26;101277.09;5071773;28;20413;-69
2022/05/31 07:50:13;;;;;;;14.57;9.38;;;;;;;12.30;83.77;101284.63;5071541;28;20040;-71
2022/05/31 07:52:42;;;;;;;12.30;7.53;;;;;;;12.34;83.31;101282.66;5070251;28;20507;-71
2022/05/31 07:55:11;;;;;;;13.63;7.85;;;;;;;12.38;83.52;101275.38;5075216;28;20491;-70
2022/05/31 08:00:24;;;;;;;12.10;8.73;;;;;;;12.50;83.08;101277.19;5050389;28;20064;-70
2022/05/31 08:02:53;;;;;;;13.05;7.55;;;;;;;12.59;82.60;101273.09;5072110;28;20110;-70
2022/05/31 08:05:21;;;;;;;14.57;7.43;;;;;;;12.63;83.43;101270.16;5071245;28;20094;-73
2022/05/31 08:07:50;;;;;;;10.80;6.95;;;;;;;12.73;82.28;101272.19;5070110;28;20410;-71
2022/05/31 08:10:34;;;;;;;14.45;7.05;;;;;;;12.84;80.92;101270.50;5073562;28;20384;-70
2022/05/31 08:13:02;;;;;;;11.52;7.25;;;;;;;12.93;79.47;101276.09;5079713;28;20060;-69
2022/05/31 08:15:30;;;;;;;12.95;6.90;;;;;;;13.05;80.20;101271.75;5080078;28;20044;-70
2022/05/31 08:17:58;;;;;;;11.20;6.53;;;;;;;13.21;79.16;101275.06;5076528;28;20108;-69
2022/05/31 08:20:26;;;;;;;12.82;7.30;;;;;;;13.37;78.28;101279.28;5076340;28;20048;-70
2022/05/31 08:22:56;;;;;;;14.13;7.07;;;;;;;13.35;77.68;101269.69;5074642;28;20048;-69
2022/05/31 08:25:24;;;;;;;14.25;7.10;;;;;;;13.40;76.60;101271.16;5078396;28;20041;-71
2022/05/31 08:27:52;;;;;;;10.98;7.47;;;;;;;13.43;76.78;101270.94;5080379;28;20578;-69
2022/05/31 08:30:20;;;;;;;15.25;7.13;;;;;;;13.60;75.80;101273.22;5080500;28;20059;-70
2022/05/31 08:32:48;;;;;;;10.35;6.97;;;;;;;13.54;75.02;101268.38;5080342;28;20075;-70
2022/05/31 08:35:16;;;;;;;11.77;6.95;;;;;;;13.66;74.13;101269.28;5079851;28;20056;-69
2022/05/31 08:37:44;;;;;;;13.20;6.60;;;;;;;13.73;73.92;101272.34;5078595;28;20136;-69
2022/05/31 08:40:14;;;;;;;13.15;6.90;;;;;;;13.64;72.79;101263.28;5078915;28;20037;-70
2022/05/31 08:42:53;;;;;;;10.13;6.15;;;;;;;13.73;71.65;101256.47;5076858;28;20048;-69
2022/05/31 08:45:32;;;;;;;12.35;6.55;;;;;;;13.86;72.90;101258.16;5080860;28;20041;-69
2022/05/31 08:48:10;;;;;;;11.23;6.60;;;;;;;13.96;72.44;101258.31;5081034;28;20053;-69
2022/05/31 08:53:41;;;;;;;13.85;6.85;;;;;;;14.13;73.05;101256.25;5079764;28;20053;-69
2022/05/31 08:59:05;;;;;;;12.80;6.35;;;;;;;14.49;69.97;101247.38;5078681;28;20041;-68
2022/05/31 09:01:35;;;;;;;;;;;;;;;14.50;69.78;101237.63;5078027;28;20048;-69
2022/05/31 09:04:15;;;;;;;9.63;5.50;;;;;;;14.59;69.66;101236.91;5078339;28;19925;-68
2022/05/31 09:06:48;;;;;;;10.05;6.63;;;;;;;14.77;69.37;101241.81;5078070;28;20407;-68
2022/05/31 09:09:20;;;;;;;11.80;6.65;;;;;;;14.75;69.05;101231.34;5077640;28;20136;-69
2022/05/31 09:12:00;;;;;;;10.60;6.35;;;;;;;14.99;68.92;101233.03;5075050;28;20044;-70
2022/05/31 09:14:40;;;;;;;9.65;5.72;;;;;;;15.03;66.01;101235.31;5091361;28;20056;-71
2022/05/31 09:17:13;;;;;;;10.68;6.15;;;;;;;15.24;67.33;101239.91;5076097;28;20048;-69
2022/05/31 09:19:46;;;;;;;12.38;6.63;;;;;;;15.60;67.94;101243.25;5077193;28;20116;-69
2022/05/31 09:22:15;;;;;;;10.50;6.47;;;;;;;15.75;64.15;101246.47;5076584;28;20051;-68
2022/05/31 09:24:46;;;;;;;10.35;5.43;;;;;;;16.01;64.76;101249.69;5074835;28;20055;-71
2022/05/31 09:27:23;;;;;;;11.30;5.70;;;;;;;16.14;62.35;101244.25;5075204;28;20498;-72
2022/05/31 09:30:01;;;;;;;11.55;6.07;;;;;;;16.26;61.79;101245.00;5074771;28;20048;-69
2022/05/31 09:32:47;;;;;;;10.40;6.05;;;;;;;16.59;62.68;101243.16;5074988;28;20049;-70
2022/05/31 09:35:42;;;;;;;10.25;5.57;;;;;;;16.98;60.61;101248.72;5075015;28;20048;-70
2022/05/31 09:38:48;;;;;;;11.00;5.80;;;;;;;17.39;57.41;101241.63;5073925;28;20067;-70
2022/05/31 09:41:23;;;;;;;7.43;4.68;;;;;;;17.74;56.42;101245.66;5073564;28;20049;-69
2022/05/31 09:44:03;;;;;;;9.70;5.15;;;;;;;18.22;57.25;101235.22;5073740;28;20048;-69
2022/05/31 09:46:38;;;;;;;9.30;5.00;;;;;;;17.97;55.41;101241.91;5073891;28;20068;-70
2022/05/31 09:49:19;;;;;;;9.35;4.88;;;;;;;18.21;54.25;101238.84;5073247;28;20044;-70
2022/05/31 09:51:47;;;;;;;9.15;4.25;;;;;;;18.48;52.38;101245.28;5073933;28;20503;-69
2022/05/31 09:57:10;;;;;;;10.18;3.70;;;;;;;18.22;50.92;101240.53;5073627;28;20071;-69
2022/05/31 09:59:46;;;;;;;9.32;3.50;;;;;;;18.35;49.79;101237.59;5073741;28;20049;-68
2022/05/31 10:02:27;;;;;;;7.63;3.83;;;;;;;18.67;49.77;101228.44;5079371;28;20059;-69
2022/05/31 10:05:16;;;;;;;7.10;3.92;;;;;;;19.03;48.80;101224.16;5082510;28;20483;-68
2022/05/31 10:07:46;;;;;;;7.53;3.95;;;;;;;18.98;47.72;101218.44;5082459;28;20063;-69
2022/05/31 10:10:24;;;;;;;8.02;4.00;;;;;;;19.35;49.01;101220.22;5080514;28;20052;-67
2022/05/31 10:12:54;;;;;;;9.02;3.97;;;;;;;19.55;48.02;101212.09;5078889;28;20143;-68
2022/05/31 10:15:55;;;;;;;7.63;3.35;;;;;;;19.77;45.88;101216.19;5077051;28;20072;-68
2022/05/31 10:18:29;;;;;;;7.05;3.08;;;;;;;19.33;43.23;101219.50;5075161;28;20082;-68
2022/05/31 10:20:59;;;;;;;7.15;3.38;;;;;;;18.96;44.60;101212.38;5076198;28;20040;-69
2022/05/31 10:23:34;;;;;;;6.15;3.25;;;;;;;19.13;44.64;101210.78;5074859;28;20049;-71
2022/05/31 10:26:03;;;;;;;7.10;3.55;;;;;;;19.51;45.83;101216.06;5074469;28;20047;-71
2022/05/31 10:28:36;;;;;;;6.93;3.35;;;;;;;19.98;45.12;101207.06;5073999;28;20106;-72
2022/05/31 10:31:14;;;;;;;7.13;3.40;;;;;;;20.30;43.41;101203.84;5073553;28;20043;-70
2022/05/31 10:33:52;;;;;;;7.68;3.70;;;;;;;20.49;42.18;101205.47;5073159;28;20049;-68
2022/05/31 10:36:23;;;;;;;7.97;3.40;;;;;;;20.71;41.12;101209.50;5071757;28;20135;-71
2022/05/31 10:38:52;;;;;;;6.78;2.90;;;;;;;20.93;40.56;101201.94;5072992;28;20041;-72
2022/05/31 10:41:24;;;;;;;7.82;3.03;;;;;;;21.27;40.54;101201.91;5072808;28;20072;-71
2022/05/31 10:44:20;;;;;;;7.57;3.53;;;;;;;21.23;41.12;101202.41;5072641;28;20410;-71
2022/05/31 10:46:56;;;;;;;6.03;2.85;;;;;;;20.99;37.89;101201.28;5072793;28;20986;-69
2022/05/31 10:49:25;;;;;;;5.95;2.67;;;;;;;20.56;39.24;101211.00;5072287;28;20041;-69
2022/05/31 10:52:04;;;;;;;6.25;3.10;;;;;;;20.56;39.86;101197.66;5072737;28;20109;-70
2022/05/31 10:55:07;;;;;;;5.85;2.50;;;;;;;20.88;38.23;101196.22;5072631;28;20048;-69
2022/05/31 10:57:51;;;;;;;5.15;2.60;;;;;;;21.16;37.34;101190.66;5069269;28;20060;-70
2022/05/31 11:00:22;;;;;;;7.25;3.22;;;;;;;21.69;37.78;101194.00;5071983;28;20518;-69
2022/05/31 11:03:29;;;;;;;6.68;2.90;;;;;;;21.53;37.79;101202.84;5072088;28;20056;-69
2022/05/31 11:06:17;;;;;;;6.60;2.95;;;;;;;21.00;38.79;101199.47;5055483;28;20138;-71
2022/05/31 11:11:57;;;;;;;7.18;2.70;;;;;;;21.70;36.46;101196.53;5072052;28;20407;-68
2022/05/31 11:15:03;;;;;;;6.03;2.50;;;;;;;22.14;35.82;101189.19;5072012;28;20053;-69
2022/05/31 11:17:54;;;;;;;5.68;2.60;;;;;;;21.56;37.25;101189.16;5071903;28;20110;-68
2022/05/31 11:20:27;;;;;;;6.78;3.05;;;;;;;21.66;37.67;101187.16;5071748;28;20044;-69
2022/05/31 11:23:07;;;;;;;7.03;3.20;;;;;;;21.38;37.35;101183.91;5072047;28;20507;-70
2022/05/31 11:25:51;;;;;;;7.38;2.47;;;;;;;21.89;37.17;101183.84;5071986;28;20052;-68
2022/05/31 11:28:53;;;;;;;3.63;2.22;;;;;;;22.58;36.07;101172.78;5071853;28;20048;-69
2022/05/31 11:31:37;;;;;;;4.07;2.20;;;;;;;22.86;34.61;101167.81;5071736;28;20040;-62
2022/05/31 11:34:25;;;;;;;6.40;1.92;;;;;;;23.43;34.85;101174.78;5071799;28;20510;-63
2022/05/31 11:37:12;;;;;;;3.97;1.65;;;;;;;23.67;32.66;101172.13;5071807;28;20445;-62
2022/05/31 11:39:57;;;;;;;4.97;2.22;;;;;;;23.89;34.06;101173.19;5071642;28;20049;-62
2022/05/31 11:42:40;;;;;;;5.28;2.00;;;;;;;23.51;32.41;101176.59;5071654;28;20517;-62
2022/05/31 11:45:20;;;;;;;5.43;2.08;;;;;;;23.32;33.71;101172.50;5071442;28;20040;-62
2022/05/31 11:48:13;;;;;;;4.80;1.85;;;;;;;23.62;32.55;101178.03;5071341;28;20044;-63
2022/05/31 11:50:56;;;;;;;6.30;2.10;;;;;;;23.67;30.63;101178.34;5071777;28;20617;-62
2022/05/31 11:53:50;;;;;;;5.38;2.10;;;;;;;23.67;30.48;101169.44;5071629;28;20044;-63
2022/05/31 11:56:27;;;;;;;6.90;2.28;;;;;;;23.31;31.77;101170.00;5071348;28;20071;-62
2022/05/31 11:59:01;;;;;;;5.22;2.28;;;;;;;22.99;32.41;101169.94;5071772;28;20036;-62
2022/05/31 12:01:36;;;;;;;6.50;2.25;;;;;;;22.31;32.71;101166.75;5071424;28;20044;-62
2022/05/31 12:04:17;;;;;;;6.22;1.95;;;;;;;22.14;33.19;101163.25;5071483;28;20111;-63
2022/05/31 12:06:51;;;;;;;4.05;2.03;;;;;;;22.32;33.78;101152.34;5071296;28;20053;-62
2022/05/31 12:09:27;;;;;;;3.58;1.65;;;;;;;22.50;33.04;101151.34;5071113;28;20048;-66
2022/05/31 12:12:01;;;;;;;6.38;2.15;;;;;;;22.90;31.30;101150.38;5071474;28;20040;-67